createdAt,value
2023-05-14T00:03:28.964Z,33.00
2023-05-14T00:08:32.136Z,31.50
2023-05-14T00:13:36.064Z,33.00
2023-05-14T00:18:39.219Z,29.00
2023-05-14T00:23:42.453Z,32.00
2023-05-14T00:28:45.935Z,32.33
2023-05-14T00:33:49.082Z,37.00
2023-05-14T00:38:52.403Z,30.67
2023-05-14T00:43:55.549Z,30.33
2023-05-14T00:48:59.762Z,28.00
2023-05-14T00:54:03.245Z,31.50
2023-05-14T00:59:06.369Z,31.00
2023-05-14T01:04:10.641Z,34.00
2023-05-14T01:09:27.122Z,34.33
2023-05-14T01:14:58.572Z,33.00
2023-05-14T01:20:02.626Z,31.00
2023-05-14T01:25:06.619Z,34.00
2023-05-14T01:30:31.546Z,37.50
2023-05-14T01:35:35.027Z,35.50
2023-05-14T01:40:38.717Z,36.67
2023-05-14T01:45:42.752Z,36.00
2023-05-14T01:50:45.960Z,37.50
2023-05-14T01:55:49.040Z,37.00
2023-05-14T02:00:52.160Z,38.00
2023-05-14T02:05:55.382Z,38.00
2023-05-14T02:10:58.798Z,39.00
2023-05-14T02:16:02.471Z,38.00
2023-05-14T02:21:05.697Z,36.00
2023-05-14T02:26:12.585Z,37.33
2023-05-14T02:31:17.665Z,38.00
2023-05-14T02:36:20.992Z,38.00
2023-05-14T02:41:24.353Z,41.00
2023-05-14T02:51:31.840Z,35.50
2023-05-14T02:56:35.076Z,38.00
2023-05-14T03:01:38.254Z,34.50
2023-05-14T03:06:42.592Z,40.50
2023-05-14T03:11:46.201Z,36.00
2023-05-14T03:16:49.478Z,40.00
2023-05-14T03:21:52.697Z,37.00
2023-05-14T03:26:55.805Z,38.00
2023-05-14T03:31:59.993Z,33.00
2023-05-14T03:37:03.232Z,39.50
2023-05-14T03:42:06.649Z,33.50
2023-05-14T03:47:09.694Z,37.00
2023-05-14T03:52:12.901Z,35.00
2023-05-14T03:57:16.169Z,37.33
2023-05-14T04:02:19.442Z,36.00
2023-05-14T04:07:24.092Z,33.00
2023-05-14T04:12:27.294Z,39.00
2023-05-14T04:17:30.847Z,45.00
2023-05-14T04:22:33.969Z,33.33
2023-05-14T04:27:37.122Z,32.50
2023-05-14T04:32:40.376Z,32.50
2023-05-14T04:37:43.547Z,33.00
2023-05-14T04:42:46.591Z,31.67
2023-05-14T04:47:50.040Z,28.50
2023-05-14T04:52:53.150Z,28.00
2023-05-14T04:57:56.367Z,30.00
2023-05-14T05:02:59.541Z,28.00
2023-05-14T05:08:02.812Z,24.00
2023-05-14T05:13:05.939Z,27.50
2023-05-14T05:18:09.308Z,26.00
2023-05-14T05:23:12.403Z,22.00
2023-05-14T05:28:16.219Z,22.50
2023-05-14T05:33:19.958Z,26.00
2023-05-14T05:38:23.322Z,24.50
2023-05-14T05:43:26.695Z,22.00
2023-05-14T05:48:29.746Z,21.67
2023-05-14T05:53:32.896Z,22.00
2023-05-14T05:58:36.337Z,18.67
2023-05-14T06:03:39.489Z,20.00
2023-05-14T06:08:42.584Z,18.50
2023-05-14T06:13:45.746Z,20.00
2023-05-14T06:18:49.516Z,17.00
2023-05-14T06:23:52.642Z,14.00
2023-05-14T06:28:55.820Z,10.00
2023-05-14T06:33:58.954Z,10.50
2023-05-14T06:39:02.042Z,13.50
2023-05-14T06:44:05.193Z,12.00
2023-05-14T06:49:08.378Z,10.00
2023-05-14T06:54:11.848Z,8.33
2023-05-14T06:59:14.933Z,7.00
2023-05-14T07:04:18.092Z,9.00
2023-05-14T07:09:22.158Z,8.50
2023-05-14T07:14:25.516Z,7.33
2023-05-14T07:19:29.843Z,10.00
2023-05-14T07:24:32.953Z,6.00
2023-05-14T07:29:36.768Z,9.50
2023-05-14T07:34:39.884Z,6.00
2023-05-14T07:39:43.089Z,8.00
2023-05-14T07:44:46.860Z,8.50
2023-05-14T07:49:49.974Z,5.50
2023-05-14T07:54:53.155Z,9.00
2023-05-14T07:59:56.946Z,3.00
2023-05-14T08:05:00.114Z,7.33
2023-05-14T08:10:03.445Z,8.00
2023-05-14T08:15:07.922Z,7.00
2023-05-14T08:20:12.199Z,5.50
2023-05-14T08:25:15.343Z,6.00
2023-05-14T08:30:18.453Z,4.00
2023-05-14T08:35:21.628Z,7.00
2023-05-14T08:40:25.096Z,6.00
2023-05-14T08:45:34.068Z,5.00
2023-05-14T08:50:37.393Z,5.50
2023-05-14T08:55:40.529Z,6.00
2023-05-14T09:00:43.853Z,6.00
2023-05-14T09:05:49.302Z,4.00
2023-05-14T09:10:52.371Z,3.00
2023-05-14T09:15:55.822Z,2.00
2023-05-14T09:20:59.169Z,3.00
2023-05-14T09:26:06.229Z,4.00
2023-05-14T09:31:09.886Z,4.00
2023-05-14T09:36:13.094Z,4.00
2023-05-14T09:41:16.528Z,4.00
2023-05-14T09:46:19.640Z,5.00
2023-05-14T09:51:22.921Z,4.00
2023-05-14T09:56:26.411Z,5.00
2023-05-14T10:01:31.337Z,4.00
2023-05-14T10:06:38.077Z,4.00
2023-05-14T10:11:44.355Z,4.50
2023-05-14T10:16:52.503Z,3.00
2023-05-14T10:21:57.891Z,3.00
2023-05-14T10:27:01.968Z,3.33
2023-05-14T10:32:07.166Z,3.00
2023-05-14T10:37:12.987Z,4.67
2023-05-14T10:42:32.748Z,5.00
2023-05-14T10:47:37.150Z,4.00
2023-05-14T10:52:44.667Z,5.00
2023-05-14T10:57:48.351Z,5.00
2023-05-14T11:02:55.710Z,5.00
2023-05-14T11:07:59.016Z,3.00
2023-05-14T11:13:02.684Z,2.33
2023-05-14T11:18:06.238Z,3.00
2023-05-14T11:23:09.858Z,4.00
2023-05-14T11:28:12.990Z,4.00
2023-05-14T11:33:16.775Z,4.00
2023-05-14T11:38:21.349Z,5.00
2023-05-14T11:43:26.294Z,4.00
2023-05-14T11:48:29.450Z,4.00
2023-05-14T11:53:33.291Z,3.00
2023-05-14T11:58:36.417Z,4.00
2023-05-14T12:03:39.768Z,4.00
2023-05-14T12:08:43.619Z,3.00
2023-05-14T12:13:46.785Z,3.00
2023-05-14T12:18:49.989Z,3.50
2023-05-14T12:24:02.763Z,3.00
2023-05-14T12:29:08.969Z,2.00
2023-05-14T12:34:12.124Z,4.00
2023-05-14T12:39:15.553Z,2.00
2023-05-14T12:44:19.077Z,4.00
2023-05-14T12:49:22.411Z,4.00
2023-05-14T12:54:25.708Z,2.00
2023-05-14T12:59:28.995Z,4.50
2023-05-14T13:04:32.234Z,4.00
2023-05-14T13:09:35.454Z,3.00
2023-05-14T13:14:38.694Z,3.00
2023-05-14T13:19:41.866Z,4.00
2023-05-14T13:24:45.284Z,2.00
2023-05-14T13:29:48.470Z,3.00
2023-05-14T13:34:51.663Z,3.00
2023-05-14T13:39:54.807Z,3.00
2023-05-14T13:44:59.459Z,3.00
2023-05-14T13:50:02.888Z,1.00
2023-05-14T13:55:08.304Z,4.00
2023-05-14T14:00:11.970Z,3.00
2023-05-14T14:05:15.210Z,3.00
2023-05-14T14:10:18.457Z,3.00
2023-05-14T14:15:21.926Z,3.00
2023-05-14T14:20:25.351Z,3.00
2023-05-14T14:25:28.482Z,3.00
2023-05-14T14:30:32.721Z,2.33
2023-05-14T14:35:37.482Z,3.00
2023-05-14T14:40:40.776Z,3.00
2023-05-14T14:45:48.158Z,3.00
2023-05-14T14:50:52.921Z,2.50
2023-05-14T14:55:56.806Z,2.50
2023-05-14T15:01:01.369Z,5.00
2023-05-14T15:06:05.012Z,3.00
2023-05-14T15:11:08.658Z,3.00
2023-05-14T15:16:12.612Z,3.00
2023-05-14T15:21:15.815Z,4.00
2023-05-14T15:26:19.022Z,3.67
2023-05-14T15:31:22.421Z,5.00
2023-05-14T15:36:25.769Z,4.33
2023-05-14T15:41:29.687Z,4.00
2023-05-14T15:46:33.010Z,3.00
2023-05-14T15:51:36.233Z,0.00
2023-05-14T15:56:39.570Z,5.00
2023-05-14T16:01:42.715Z,5.00
2023-05-14T16:06:46.004Z,6.50
2023-05-14T16:11:49.155Z,5.00
2023-05-14T16:16:53.988Z,4.00
2023-05-14T16:21:58.070Z,4.00
